sensor_id;sensor_type;location;lat;lon;timestamp;P1;durP1;ratioP1;P2;durP2;ratioP2
7302;SDS011;54309;48.150;11.540;2022-10-16T00:01:25;3.33;;;1.40;;
7302;SDS011;54309;48.150;11.540;2022-10-16T00:03:53;2.57;;;1.47;;
7302;SDS011;54309;48.150;11.540;2022-10-16T00:06:21;1.63;;;1.20;;
7302;SDS011;54309;48.150;11.540;2022-10-16T00:08:50;3.10;;;1.40;;
7302;SDS011;54309;48.150;11.540;2022-10-16T00:11:18;3.07;;;1.60;;
7302;SDS011;54309;48.150;11.540;2022-10-16T00:13:47;3.07;;;1.60;;
7302;SDS011;54309;48.150;11.540;2022-10-16T00:16:14;2.50;;;1.47;;
7302;SDS011;54309;48.150;11.540;2022-10-16T00:18:42;3.80;;;1.10;;
7302;SDS011;54309;48.150;11.540;2022-10-16T00:21:09;2.70;;;1.70;;
7302;SDS011;54309;48.150;11.540;2022-10-16T00:23:37;2.47;;;1.60;;
7302;SDS011;54309;48.150;11.540;2022-10-16T00:26:07;4.80;;;1.50;;
7302;SDS011;54309;48.150;11.540;2022-10-16T00:28:34;5.27;;;1.50;;
7302;SDS011;54309;48.150;11.540;2022-10-16T00:31:03;6.63;;;1.53;;
7302;SDS011;54309;48.150;11.540;2022-10-16T00:33:30;3.73;;;1.40;;
7302;SDS011;54309;48.150;11.540;2022-10-16T00:35:57;1.70;;;1.23;;
7302;SDS011;54309;48.150;11.540;2022-10-16T00:38:24;1.93;;;1.30;;
7302;SDS011;54309;48.150;11.540;2022-10-16T00:40:52;2.47;;;1.40;;
7302;SDS011;54309;48.150;11.540;2022-10-16T00:43:34;4.43;;;1.70;;
7302;SDS011;54309;48.150;11.540;2022-10-16T00:46:03;1.77;;;1.13;;
7302;SDS011;54309;48.150;11.540;2022-10-16T00:48:31;5.83;;;1.30;;
7302;SDS011;54309;48.150;11.540;2022-10-16T00:50:58;3.80;;;1.33;;
7302;SDS011;54309;48.150;11.540;2022-10-16T00:53:25;6.43;;;1.73;;
7302;SDS011;54309;48.150;11.540;2022-10-16T00:55:54;2.83;;;1.40;;
7302;SDS011;54309;48.150;11.540;2022-10-16T00:58:21;2.33;;;1.40;;
7302;SDS011;54309;48.150;11.540;2022-10-16T01:03:29;2.67;;;1.20;;
7302;SDS011;54309;48.150;11.540;2022-10-16T01:06:09;2.67;;;1.27;;
7302;SDS011;54309;48.150;11.540;2022-10-16T01:08:44;2.17;;;1.30;;
7302;SDS011;54309;48.150;11.540;2022-10-16T01:11:13;3.30;;;1.80;;
7302;SDS011;54309;48.150;11.540;2022-10-16T01:13:46;3.50;;;1.20;;
7302;SDS011;54309;48.150;11.540;2022-10-16T01:16:16;1.70;;;1.30;;
7302;SDS011;54309;48.150;11.540;2022-10-16T01:18:49;4.10;;;1.53;;
7302;SDS011;54309;48.150;11.540;2022-10-16T01:21:19;3.73;;;1.30;;
7302;SDS011;54309;48.150;11.540;2022-10-16T01:23:50;1.40;;;1.17;;
7302;SDS011;54309;48.150;11.540;2022-10-16T01:26:24;2.57;;;1.13;;
7302;SDS011;54309;48.150;11.540;2022-10-16T01:29:00;2.97;;;1.37;;
7302;SDS011;54309;48.150;11.540;2022-10-16T01:31:31;2.93;;;1.20;;
7302;SDS011;54309;48.150;11.540;2022-10-16T01:34:02;1.40;;;1.30;;
7302;SDS011;54309;48.150;11.540;2022-10-16T01:36:31;2.10;;;1.30;;
7302;SDS011;54309;48.150;11.540;2022-10-16T01:39:01;1.20;;;1.10;;
7302;SDS011;54309;48.150;11.540;2022-10-16T01:41:30;1.40;;;1.00;;
7302;SDS011;54309;48.150;11.540;2022-10-16T01:44:01;1.17;;;1.03;;
7302;SDS011;54309;48.150;11.540;2022-10-16T01:46:30;1.73;;;1.13;;
7302;SDS011;54309;48.150;11.540;2022-10-16T01:48:58;1.13;;;0.97;;
7302;SDS011;54309;48.150;11.540;2022-10-16T01:51:26;2.63;;;0.90;;
7302;SDS011;54309;48.150;11.540;2022-10-16T01:53:55;1.37;;;1.20;;
7302;SDS011;54309;48.150;11.540;2022-10-16T01:56:24;2.33;;;1.00;;
7302;SDS011;54309;48.150;11.540;2022-10-16T01:58:53;3.57;;;0.80;;
7302;SDS011;54309;48.150;11.540;2022-10-16T02:01:23;2.57;;;1.20;;
7302;SDS011;54309;48.150;11.540;2022-10-16T02:03:52;1.13;;;0.90;;
7302;SDS011;54309;48.150;11.540;2022-10-16T02:06:21;2.80;;;1.40;;
7302;SDS011;54309;48.150;11.540;2022-10-16T02:08:48;2.70;;;1.10;;
7302;SDS011;54309;48.150;11.540;2022-10-16T02:11:15;1.80;;;1.00;;
7302;SDS011;54309;48.150;11.540;2022-10-16T02:13:44;2.90;;;1.07;;
7302;SDS011;54309;48.150;11.540;2022-10-16T02:16:12;1.90;;;0.83;;
7302;SDS011;54309;48.150;11.540;2022-10-16T02:18:41;3.67;;;1.40;;
7302;SDS011;54309;48.150;11.540;2022-10-16T02:21:10;4.83;;;1.03;;
7302;SDS011;54309;48.150;11.540;2022-10-16T02:23:40;2.30;;;0.90;;
7302;SDS011;54309;48.150;11.540;2022-10-16T02:26:11;1.57;;;0.87;;
7302;SDS011;54309;48.150;11.540;2022-10-16T02:28:40;1.53;;;1.30;;
7302;SDS011;54309;48.150;11.540;2022-10-16T02:31:09;0.67;;;0.67;;
7302;SDS011;54309;48.150;11.540;2022-10-16T02:33:37;1.80;;;1.17;;
7302;SDS011;54309;48.150;11.540;2022-10-16T02:36:07;2.60;;;0.90;;
7302;SDS011;54309;48.150;11.540;2022-10-16T02:38:34;1.07;;;0.80;;
7302;SDS011;54309;48.150;11.540;2022-10-16T02:41:03;1.47;;;0.97;;
7302;SDS011;54309;48.150;11.540;2022-10-16T02:43:31;1.37;;;1.23;;
7302;SDS011;54309;48.150;11.540;2022-10-16T02:45:59;1.73;;;0.93;;
7302;SDS011;54309;48.150;11.540;2022-10-16T02:48:27;3.10;;;1.20;;
7302;SDS011;54309;48.150;11.540;2022-10-16T02:50:54;2.47;;;1.10;;
7302;SDS011;54309;48.150;11.540;2022-10-16T02:53:23;1.87;;;1.00;;
7302;SDS011;54309;48.150;11.540;2022-10-16T02:55:50;1.10;;;1.00;;
7302;SDS011;54309;48.150;11.540;2022-10-16T02:58:17;1.33;;;1.00;;
7302;SDS011;54309;48.150;11.540;2022-10-16T03:00:45;2.80;;;1.53;;
7302;SDS011;54309;48.150;11.540;2022-10-16T03:03:12;2.30;;;0.90;;
7302;SDS011;54309;48.150;11.540;2022-10-16T03:05:39;2.27;;;1.03;;
7302;SDS011;54309;48.150;11.540;2022-10-16T03:08:06;1.10;;;0.90;;
7302;SDS011;54309;48.150;11.540;2022-10-16T03:10:35;1.33;;;0.90;;
7302;SDS011;54309;48.150;11.540;2022-10-16T03:13:02;1.23;;;1.00;;
7302;SDS011;54309;48.150;11.540;2022-10-16T03:15:29;0.90;;;0.90;;
7302;SDS011;54309;48.150;11.540;2022-10-16T03:17:57;1.23;;;1.10;;
7302;SDS011;54309;48.150;11.540;2022-10-16T03:20:24;0.67;;;0.67;;
7302;SDS011;54309;48.150;11.540;2022-10-16T03:22:51;0.90;;;0.73;;
7302;SDS011;54309;48.150;11.540;2022-10-16T03:25:19;1.93;;;1.00;;
7302;SDS011;54309;48.150;11.540;2022-10-16T03:27:47;1.37;;;1.00;;
7302;SDS011;54309;48.150;11.540;2022-10-16T03:30:14;1.67;;;1.03;;
7302;SDS011;54309;48.150;11.540;2022-10-16T03:32:42;11.07;;;1.23;;
7302;SDS011;54309;48.150;11.540;2022-10-16T03:35:10;3.40;;;1.20;;
7302;SDS011;54309;48.150;11.540;2022-10-16T03:37:37;3.40;;;1.23;;
7302;SDS011;54309;48.150;11.540;2022-10-16T03:40:05;0.90;;;0.90;;
7302;SDS011;54309;48.150;11.540;2022-10-16T03:42:32;0.80;;;0.80;;
7302;SDS011;54309;48.150;11.540;2022-10-16T03:45:01;4.67;;;0.90;;
7302;SDS011;54309;48.150;11.540;2022-10-16T03:47:28;0.97;;;0.87;;
7302;SDS011;54309;48.150;11.540;2022-10-16T03:49:57;3.33;;;1.00;;
7302;SDS011;54309;48.150;11.540;2022-10-16T03:52:25;2.90;;;1.47;;
7302;SDS011;54309;48.150;11.540;2022-10-16T03:54:52;0.73;;;0.70;;
7302;SDS011;54309;48.150;11.540;2022-10-16T03:57:19;1.73;;;1.30;;
7302;SDS011;54309;48.150;11.540;2022-10-16T03:59:46;1.20;;;1.00;;
7302;SDS011;54309;48.150;11.540;2022-10-16T04:02:15;1.40;;;1.00;;
7302;SDS011;54309;48.150;11.540;2022-10-16T04:04:42;4.57;;;1.17;;
7302;SDS011;54309;48.150;11.540;2022-10-16T04:07:09;1.33;;;1.10;;
7302;SDS011;54309;48.150;11.540;2022-10-16T04:09:36;1.27;;;1.10;;
7302;SDS011;54309;48.150;11.540;2022-10-16T04:12:04;1.67;;;1.20;;
7302;SDS011;54309;48.150;11.540;2022-10-16T04:14:31;1.60;;;1.40;;
7302;SDS011;54309;48.150;11.540;2022-10-16T04:16:59;4.00;;;1.30;;
7302;SDS011;54309;48.150;11.540;2022-10-16T04:19:27;2.37;;;1.47;;
7302;SDS011;54309;48.150;11.540;2022-10-16T04:21:54;2.17;;;1.10;;
7302;SDS011;54309;48.150;11.540;2022-10-16T04:24:21;1.27;;;1.17;;
7302;SDS011;54309;48.150;11.540;2022-10-16T04:26:49;2.87;;;1.30;;
7302;SDS011;54309;48.150;11.540;2022-10-16T04:29:16;1.30;;;1.20;;
7302;SDS011;54309;48.150;11.540;2022-10-16T04:31:43;1.30;;;1.20;;
7302;SDS011;54309;48.150;11.540;2022-10-16T04:34:10;5.47;;;1.47;;
7302;SDS011;54309;48.150;11.540;2022-10-16T04:36:39;1.77;;;1.00;;
7302;SDS011;54309;48.150;11.540;2022-10-16T04:39:07;1.17;;;1.07;;
7302;SDS011;54309;48.150;11.540;2022-10-16T04:41:34;1.43;;;1.13;;
7302;SDS011;54309;48.150;11.540;2022-10-16T04:44:01;1.83;;;1.23;;
7302;SDS011;54309;48.150;11.540;2022-10-16T04:46:28;1.47;;;1.03;;
7302;SDS011;54309;48.150;11.540;2022-10-16T04:48:56;1.67;;;1.10;;
7302;SDS011;54309;48.150;11.540;2022-10-16T04:51:23;1.67;;;1.30;;
7302;SDS011;54309;48.150;11.540;2022-10-16T04:53:53;1.23;;;1.10;;
7302;SDS011;54309;48.150;11.540;2022-10-16T04:56:20;1.57;;;1.40;;
7302;SDS011;54309;48.150;11.540;2022-10-16T04:58:48;1.63;;;1.10;;
7302;SDS011;54309;48.150;11.540;2022-10-16T05:01:15;14.03;;;1.40;;
7302;SDS011;54309;48.150;11.540;2022-10-16T05:03:42;2.73;;;1.13;;
7302;SDS011;54309;48.150;11.540;2022-10-16T05:06:09;1.30;;;1.20;;
7302;SDS011;54309;48.150;11.540;2022-10-16T05:08:36;1.53;;;1.13;;
7302;SDS011;54309;48.150;11.540;2022-10-16T05:11:05;2.57;;;1.17;;
7302;SDS011;54309;48.150;11.540;2022-10-16T05:13:32;2.10;;;1.30;;
7302;SDS011;54309;48.150;11.540;2022-10-16T05:15:59;1.80;;;1.20;;
7302;SDS011;54309;48.150;11.540;2022-10-16T05:18:26;1.73;;;1.13;;
7302;SDS011;54309;48.150;11.540;2022-10-16T05:20:54;1.73;;;1.20;;
7302;SDS011;54309;48.150;11.540;2022-10-16T05:23:21;2.17;;;1.27;;
7302;SDS011;54309;48.150;11.540;2022-10-16T05:25:54;1.23;;;1.13;;
7302;SDS011;54309;48.150;11.540;2022-10-16T05:28:24;1.00;;;0.90;;
7302;SDS011;54309;48.150;11.540;2022-10-16T05:30:52;8.73;;;1.40;;
7302;SDS011;54309;48.150;11.540;2022-10-16T05:33:19;2.10;;;1.03;;
7302;SDS011;54309;48.150;11.540;2022-10-16T05:35:47;1.43;;;1.33;;
7302;SDS011;54309;48.150;11.540;2022-10-16T05:38:14;1.40;;;1.30;;
7302;SDS011;54309;48.150;11.540;2022-10-16T05:40:42;1.70;;;1.10;;
7302;SDS011;54309;48.150;11.540;2022-10-16T05:43:09;2.17;;;1.50;;
7302;SDS011;54309;48.150;11.540;2022-10-16T05:45:38;1.90;;;1.33;;
7302;SDS011;54309;48.150;11.540;2022-10-16T05:48:05;1.87;;;1.60;;
7302;SDS011;54309;48.150;11.540;2022-10-16T05:50:32;2.67;;;1.70;;
7302;SDS011;54309;48.150;11.540;2022-10-16T05:52:59;2.47;;;1.73;;
7302;SDS011;54309;48.150;11.540;2022-10-16T05:55:27;1.83;;;1.47;;
7302;SDS011;54309;48.150;11.540;2022-10-16T05:57:54;4.07;;;2.13;;
7302;SDS011;54309;48.150;11.540;2022-10-16T06:00:21;1.80;;;1.70;;
7302;SDS011;54309;48.150;11.540;2022-10-16T06:02:50;2.53;;;1.70;;
7302;SDS011;54309;48.150;11.540;2022-10-16T06:05:17;2.00;;;1.80;;
7302;SDS011;54309;48.150;11.540;2022-10-16T06:07:44;3.73;;;1.70;;
7302;SDS011;54309;48.150;11.540;2022-10-16T06:10:11;2.57;;;1.80;;
7302;SDS011;54309;48.150;11.540;2022-10-16T06:12:38;1.83;;;1.70;;
7302;SDS011;54309;48.150;11.540;2022-10-16T06:15:06;2.50;;;1.77;;
7302;SDS011;54309;48.150;11.540;2022-10-16T06:17:33;3.50;;;1.60;;
7302;SDS011;54309;48.150;11.540;2022-10-16T06:20:01;2.53;;;1.57;;
7302;SDS011;54309;48.150;11.540;2022-10-16T06:22:29;2.40;;;1.50;;
7302;SDS011;54309;48.150;11.540;2022-10-16T06:24:56;2.97;;;1.87;;
7302;SDS011;54309;48.150;11.540;2022-10-16T06:27:23;1.70;;;1.60;;
7302;SDS011;54309;48.150;11.540;2022-10-16T06:29:50;1.63;;;1.53;;
7302;SDS011;54309;48.150;11.540;2022-10-16T06:32:17;1.67;;;1.33;;
7302;SDS011;54309;48.150;11.540;2022-10-16T06:34:45;3.60;;;2.07;;
7302;SDS011;54309;48.150;11.540;2022-10-16T06:37:14;4.33;;;2.30;;
7302;SDS011;54309;48.150;11.540;2022-10-16T06:39:41;4.23;;;1.67;;
7302;SDS011;54309;48.150;11.540;2022-10-16T06:42:08;3.07;;;2.40;;
7302;SDS011;54309;48.150;11.540;2022-10-16T06:44:35;3.50;;;2.23;;
7302;SDS011;54309;48.150;11.540;2022-10-16T06:47:03;3.63;;;2.17;;
7302;SDS011;54309;48.150;11.540;2022-10-16T06:49:30;2.60;;;1.90;;
7302;SDS011;54309;48.150;11.540;2022-10-16T06:51:57;4.13;;;2.10;;
7302;SDS011;54309;48.150;11.540;2022-10-16T06:54:26;2.40;;;2.20;;
7302;SDS011;54309;48.150;11.540;2022-10-16T06:56:53;4.67;;;2.53;;
7302;SDS011;54309;48.150;11.540;2022-10-16T06:59:20;2.57;;;2.37;;
7302;SDS011;54309;48.150;11.540;2022-10-16T07:01:48;2.70;;;2.50;;
7302;SDS011;54309;48.150;11.540;2022-10-16T07:04:15;6.07;;;5.27;;
7302;SDS011;54309;48.150;11.540;2022-10-16T07:06:42;13.97;;;7.17;;
7302;SDS011;54309;48.150;11.540;2022-10-16T07:09:10;18.80;;;11.90;;
7302;SDS011;54309;48.150;11.540;2022-10-16T07:11:39;4.57;;;3.50;;
7302;SDS011;54309;48.150;11.540;2022-10-16T07:14:09;5.53;;;3.43;;
7302;SDS011;54309;48.150;11.540;2022-10-16T07:16:39;4.73;;;3.10;;
7302;SDS011;54309;48.150;11.540;2022-10-16T07:19:06;5.77;;;3.40;;
7302;SDS011;54309;48.150;11.540;2022-10-16T07:21:36;4.13;;;3.40;;
7302;SDS011;54309;48.150;11.540;2022-10-16T07:24:04;4.27;;;2.57;;
7302;SDS011;54309;48.150;11.540;2022-10-16T07:26:32;4.10;;;2.33;;
7302;SDS011;54309;48.150;11.540;2022-10-16T07:29:01;2.27;;;2.07;;
7302;SDS011;54309;48.150;11.540;2022-10-16T07:31:28;2.97;;;2.23;;
7302;SDS011;54309;48.150;11.540;2022-10-16T07:33:57;2.03;;;1.80;;
7302;SDS011;54309;48.150;11.540;2022-10-16T07:36:25;12.87;;;8.50;;
7302;SDS011;54309;48.150;11.540;2022-10-16T07:38:52;4.70;;;3.10;;
7302;SDS011;54309;48.150;11.540;2022-10-16T07:41:19;2.73;;;2.07;;
7302;SDS011;54309;48.150;11.540;2022-10-16T07:43:47;2.53;;;2.30;;
7302;SDS011;54309;48.150;11.540;2022-10-16T07:46:17;1.90;;;1.80;;
7302;SDS011;54309;48.150;11.540;2022-10-16T07:48:45;2.63;;;2.13;;
7302;SDS011;54309;48.150;11.540;2022-10-16T07:51:13;4.30;;;2.33;;
7302;SDS011;54309;48.150;11.540;2022-10-16T07:53:40;11.47;;;5.80;;
7302;SDS011;54309;48.150;11.540;2022-10-16T07:56:08;3.10;;;2.80;;
7302;SDS011;54309;48.150;11.540;2022-10-16T07:58:36;2.63;;;2.43;;
7302;SDS011;54309;48.150;11.540;2022-10-16T08:01:04;3.30;;;3.00;;
7302;SDS011;54309;48.150;11.540;2022-10-16T08:03:33;6.53;;;5.40;;
7302;SDS011;54309;48.150;11.540;2022-10-16T08:06:00;3.63;;;2.67;;
7302;SDS011;54309;48.150;11.540;2022-10-16T08:08:28;5.03;;;2.70;;
7302;SDS011;54309;48.150;11.540;2022-10-16T08:10:55;3.60;;;2.70;;
7302;SDS011;54309;48.150;11.540;2022-10-16T08:13:22;5.83;;;2.70;;
7302;SDS011;54309;48.150;11.540;2022-10-16T08:15:49;2.83;;;2.63;;
7302;SDS011;54309;48.150;11.540;2022-10-16T08:18:17;3.23;;;2.80;;
7302;SDS011;54309;48.150;11.540;2022-10-16T08:20:45;2.90;;;2.70;;
7302;SDS011;54309;48.150;11.540;2022-10-16T08:23:12;3.17;;;2.97;;
7302;SDS011;54309;48.150;11.540;2022-10-16T08:25:40;3.93;;;3.30;;
7302;SDS011;54309;48.150;11.540;2022-10-16T08:28:09;3.27;;;3.07;;
7302;SDS011;54309;48.150;11.540;2022-10-16T08:30:36;3.10;;;2.90;;
7302;SDS011;54309;48.150;11.540;2022-10-16T08:33:04;3.97;;;3.77;;
7302;SDS011;54309;48.150;11.540;2022-10-16T08:35:32;3.40;;;3.10;;
7302;SDS011;54309;48.150;11.540;2022-10-16T08:38:00;3.67;;;3.43;;
7302;SDS011;54309;48.150;11.540;2022-10-16T08:40:29;3.40;;;3.20;;
7302;SDS011;54309;48.150;11.540;2022-10-16T08:43:07;4.07;;;3.77;;
7302;SDS011;54309;48.150;11.540;2022-10-16T08:45:43;18.77;;;14.77;;
7302;SDS011;54309;48.150;11.540;2022-10-16T08:48:14;15.83;;;11.73;;
7302;SDS011;54309;48.150;11.540;2022-10-16T08:50:44;3.80;;;3.60;;
7302;SDS011;54309;48.150;11.540;2022-10-16T08:53:15;3.73;;;3.53;;
7302;SDS011;54309;48.150;11.540;2022-10-16T08:55:43;4.10;;;3.63;;
7302;SDS011;54309;48.150;11.540;2022-10-16T08:58:13;4.53;;;4.23;;
7302;SDS011;54309;48.150;11.540;2022-10-16T09:00:43;4.53;;;4.33;;
7302;SDS011;54309;48.150;11.540;2022-10-16T09:03:22;4.17;;;3.97;;
7302;SDS011;54309;48.150;11.540;2022-10-16T09:08:39;5.50;;;5.10;;
7302;SDS011;54309;48.150;11.540;2022-10-16T09:11:09;8.07;;;7.23;;
7302;SDS011;54309;48.150;11.540;2022-10-16T09:13:40;5.27;;;4.97;;
7302;SDS011;54309;48.150;11.540;2022-10-16T09:16:12;5.23;;;4.93;;
7302;SDS011;54309;48.150;11.540;2022-10-16T09:18:43;5.20;;;4.90;;
7302;SDS011;54309;48.150;11.540;2022-10-16T09:21:15;5.23;;;4.90;;
7302;SDS011;54309;48.150;11.540;2022-10-16T09:23:46;5.27;;;4.87;;
7302;SDS011;54309;48.150;11.540;2022-10-16T09:26:16;5.10;;;4.90;;
7302;SDS011;54309;48.150;11.540;2022-10-16T09:28:47;4.53;;;4.33;;
7302;SDS011;54309;48.150;11.540;2022-10-16T09:31:15;4.80;;;4.40;;
7302;SDS011;54309;48.150;11.540;2022-10-16T09:33:43;5.00;;;4.70;;
7302;SDS011;54309;48.150;11.540;2022-10-16T09:36:11;4.60;;;4.30;;
7302;SDS011;54309;48.150;11.540;2022-10-16T09:38:39;4.80;;;4.60;;
7302;SDS011;54309;48.150;11.540;2022-10-16T09:41:14;7.63;;;6.00;;
7302;SDS011;54309;48.150;11.540;2022-10-16T09:43:46;5.47;;;5.13;;
7302;SDS011;54309;48.150;11.540;2022-10-16T09:46:21;4.77;;;4.40;;
7302;SDS011;54309;48.150;11.540;2022-10-16T09:48:49;4.60;;;4.30;;
7302;SDS011;54309;48.150;11.540;2022-10-16T09:51:18;4.87;;;4.67;;
7302;SDS011;54309;48.150;11.540;2022-10-16T09:53:54;4.50;;;4.30;;
7302;SDS011;54309;48.150;11.540;2022-10-16T09:56:23;4.87;;;4.60;;
7302;SDS011;54309;48.150;11.540;2022-10-16T09:58:52;5.20;;;4.97;;
7302;SDS011;54309;48.150;11.540;2022-10-16T10:01:20;4.73;;;4.53;;
7302;SDS011;54309;48.150;11.540;2022-10-16T10:03:48;4.97;;;4.67;;
7302;SDS011;54309;48.150;11.540;2022-10-16T10:06:20;4.70;;;4.43;;
7302;SDS011;54309;48.150;11.540;2022-10-16T10:08:55;5.80;;;5.30;;
7302;SDS011;54309;48.150;11.540;2022-10-16T10:11:40;5.20;;;4.90;;
7302;SDS011;54309;48.150;11.540;2022-10-16T10:14:09;5.40;;;5.00;;
7302;SDS011;54309;48.150;11.540;2022-10-16T10:16:40;5.10;;;4.87;;
7302;SDS011;54309;48.150;11.540;2022-10-16T10:19:09;5.00;;;4.80;;
7302;SDS011;54309;48.150;11.540;2022-10-16T10:21:40;5.13;;;4.90;;
7302;SDS011;54309;48.150;11.540;2022-10-16T10:24:09;4.50;;;4.30;;
7302;SDS011;54309;48.150;11.540;2022-10-16T10:26:36;4.95;;;4.65;;
7302;SDS011;54309;48.150;11.540;2022-10-16T10:29:06;5.20;;;4.90;;
7302;SDS011;54309;48.150;11.540;2022-10-16T10:31:36;5.25;;;4.90;;
7302;SDS011;54309;48.150;11.540;2022-10-16T10:34:11;5.22;;;4.95;;
7302;SDS011;54309;48.150;11.540;2022-10-16T10:36:43;5.22;;;4.93;;
7302;SDS011;54309;48.150;11.540;2022-10-16T10:39:12;5.20;;;4.90;;
7302;SDS011;54309;48.150;11.540;2022-10-16T10:44:35;5.38;;;5.18;;
7302;SDS011;54309;48.150;11.540;2022-10-16T10:47:06;5.68;;;5.47;;
7302;SDS011;54309;48.150;11.540;2022-10-16T10:49:41;5.53;;;5.32;;
7302;SDS011;54309;48.150;11.540;2022-10-16T10:52:26;5.65;;;5.45;;
7302;SDS011;54309;48.150;11.540;2022-10-16T10:55:00;5.90;;;5.70;;
7302;SDS011;54309;48.150;11.540;2022-10-16T10:57:30;6.25;;;5.82;;
7302;SDS011;54309;48.150;11.540;2022-10-16T11:00:04;6.10;;;5.80;;
7302;SDS011;54309;48.150;11.540;2022-10-16T11:02:35;6.25;;;5.95;;
7302;SDS011;54309;48.150;11.540;2022-10-16T11:05:26;5.80;;;5.50;;
7302;SDS011;54309;48.150;11.540;2022-10-16T11:07:55;6.00;;;5.65;;
7302;SDS011;54309;48.150;11.540;2022-10-16T11:10:25;6.25;;;5.95;;
7302;SDS011;54309;48.150;11.540;2022-10-16T11:12:55;6.03;;;5.65;;
7302;SDS011;54309;48.150;11.540;2022-10-16T11:15:27;5.97;;;5.68;;
7302;SDS011;54309;48.150;11.540;2022-10-16T11:17:55;5.80;;;5.60;;
7302;SDS011;54309;48.150;11.540;2022-10-16T11:20:24;5.78;;;5.40;;
7302;SDS011;54309;48.150;11.540;2022-10-16T11:22:53;6.10;;;5.80;;
7302;SDS011;54309;48.150;11.540;2022-10-16T11:25:21;5.90;;;5.60;;
7302;SDS011;54309;48.150;11.540;2022-10-16T11:27:50;5.93;;;5.72;;
7302;SDS011;54309;48.150;11.540;2022-10-16T11:30:19;5.78;;;5.57;;
7302;SDS011;54309;48.150;11.540;2022-10-16T11:32:52;5.50;;;5.30;;
7302;SDS011;54309;48.150;11.540;2022-10-16T11:35:21;5.50;;;5.30;;
7302;SDS011;54309;48.150;11.540;2022-10-16T11:37:50;5.60;;;5.30;;
7302;SDS011;54309;48.150;11.540;2022-10-16T11:40:19;5.10;;;4.90;;
7302;SDS011;54309;48.150;11.540;2022-10-16T11:42:50;5.10;;;4.90;;
7302;SDS011;54309;48.150;11.540;2022-10-16T11:45:24;5.28;;;5.07;;
7302;SDS011;54309;48.150;11.540;2022-10-16T11:47:57;5.10;;;4.90;;
7302;SDS011;54309;48.150;11.540;2022-10-16T11:50:26;5.32;;;5.13;;
7302;SDS011;54309;48.150;11.540;2022-10-16T11:52:57;5.13;;;4.93;;
7302;SDS011;54309;48.150;11.540;2022-10-16T11:55:27;5.28;;;5.07;;
7302;SDS011;54309;48.150;11.540;2022-10-16T11:57:57;5.20;;;5.00;;
7302;SDS011;54309;48.150;11.540;2022-10-16T12:00:28;5.05;;;4.85;;
7302;SDS011;54309;48.150;11.540;2022-10-16T12:03:00;5.40;;;5.20;;
7302;SDS011;54309;48.150;11.540;2022-10-16T12:05:33;5.55;;;5.30;;
7302;SDS011;54309;48.150;11.540;2022-10-16T12:08:05;5.43;;;5.13;;
7302;SDS011;54309;48.150;11.540;2022-10-16T12:10:34;5.18;;;4.95;;
7302;SDS011;54309;48.150;11.540;2022-10-16T12:13:02;5.00;;;4.80;;
7302;SDS011;54309;48.150;11.540;2022-10-16T12:15:29;5.38;;;5.07;;
7302;SDS011;54309;48.150;11.540;2022-10-16T12:17:58;5.25;;;5.05;;
7302;SDS011;54309;48.150;11.540;2022-10-16T12:20:27;5.20;;;5.00;;
7302;SDS011;54309;48.150;11.540;2022-10-16T12:22:56;5.80;;;5.40;;
7302;SDS011;54309;48.150;11.540;2022-10-16T12:25:25;4.93;;;4.72;;
7302;SDS011;54309;48.150;11.540;2022-10-16T12:28:03;5.20;;;5.00;;
7302;SDS011;54309;48.150;11.540;2022-10-16T12:30:32;5.45;;;5.25;;
7302;SDS011;54309;48.150;11.540;2022-10-16T12:33:02;5.13;;;4.93;;
7302;SDS011;54309;48.150;11.540;2022-10-16T12:35:30;4.93;;;4.72;;
7302;SDS011;54309;48.150;11.540;2022-10-16T12:38:05;5.00;;;4.80;;
7302;SDS011;54309;48.150;11.540;2022-10-16T12:40:33;5.22;;;4.93;;
7302;SDS011;54309;48.150;11.540;2022-10-16T12:43:10;5.00;;;4.80;;
7302;SDS011;54309;48.150;11.540;2022-10-16T12:45:38;5.50;;;5.30;;
7302;SDS011;54309;48.150;11.540;2022-10-16T12:48:18;5.25;;;5.05;;
7302;SDS011;54309;48.150;11.540;2022-10-16T12:50:46;5.30;;;5.10;;
7302;SDS011;54309;48.150;11.540;2022-10-16T12:53:17;5.43;;;5.00;;
7302;SDS011;54309;48.150;11.540;2022-10-16T12:55:47;4.97;;;4.78;;
7302;SDS011;54309;48.150;11.540;2022-10-16T12:58:23;8.02;;;5.15;;
7302;SDS011;54309;48.150;11.540;2022-10-16T13:00:54;5.13;;;4.93;;
7302;SDS011;54309;48.150;11.540;2022-10-16T13:03:34;5.20;;;5.00;;
7302;SDS011;54309;48.150;11.540;2022-10-16T13:06:08;5.28;;;5.00;;
7302;SDS011;54309;48.150;11.540;2022-10-16T13:08:42;5.40;;;5.20;;
7302;SDS011;54309;48.150;11.540;2022-10-16T13:11:14;6.30;;;5.90;;
7302;SDS011;54309;48.150;11.540;2022-10-16T13:13:50;5.72;;;5.53;;
7302;SDS011;54309;48.150;11.540;2022-10-16T13:16:23;5.60;;;5.40;;
7302;SDS011;54309;48.150;11.540;2022-10-16T13:18:59;6.00;;;5.70;;
7302;SDS011;54309;48.150;11.540;2022-10-16T13:21:35;5.28;;;5.07;;
7302;SDS011;54309;48.150;11.540;2022-10-16T13:24:07;5.63;;;5.43;;
7302;SDS011;54309;48.150;11.540;2022-10-16T13:26:39;5.60;;;5.40;;
7302;SDS011;54309;48.150;11.540;2022-10-16T13:29:09;5.05;;;4.85;;
7302;SDS011;54309;48.150;11.540;2022-10-16T13:31:36;5.13;;;4.93;;
7302;SDS011;54309;48.150;11.540;2022-10-16T13:34:10;5.05;;;4.82;;
7302;SDS011;54309;48.150;11.540;2022-10-16T13:36:42;4.90;;;4.68;;
7302;SDS011;54309;48.150;11.540;2022-10-16T13:39:11;4.70;;;4.47;;
7302;SDS011;54309;48.150;11.540;2022-10-16T13:41:39;4.68;;;4.47;;
7302;SDS011;54309;48.150;11.540;2022-10-16T13:44:08;4.35;;;4.05;;
7302;SDS011;54309;48.150;11.540;2022-10-16T13:46:38;4.28;;;4.07;;
7302;SDS011;54309;48.150;11.540;2022-10-16T13:49:12;4.63;;;4.40;;
7302;SDS011;54309;48.150;11.540;2022-10-16T13:51:39;4.70;;;4.50;;
7302;SDS011;54309;48.150;11.540;2022-10-16T13:54:07;4.47;;;4.28;;
7302;SDS011;54309;48.150;11.540;2022-10-16T13:56:36;5.03;;;4.82;;
7302;SDS011;54309;48.150;11.540;2022-10-16T13:59:03;4.70;;;4.50;;
7302;SDS011;54309;48.150;11.540;2022-10-16T14:01:31;4.00;;;3.90;;
7302;SDS011;54309;48.150;11.540;2022-10-16T14:04:00;4.10;;;3.90;;
7302;SDS011;54309;48.150;11.540;2022-10-16T14:06:30;3.80;;;3.70;;
7302;SDS011;54309;48.150;11.540;2022-10-16T14:08:59;3.90;;;3.70;;
7302;SDS011;54309;48.150;11.540;2022-10-16T14:11:26;4.53;;;4.30;;
7302;SDS011;54309;48.150;11.540;2022-10-16T14:13:55;4.10;;;3.90;;
7302;SDS011;54309;48.150;11.540;2022-10-16T14:16:23;4.43;;;4.20;;
7302;SDS011;54309;48.150;11.540;2022-10-16T14:18:54;4.20;;;4.00;;
7302;SDS011;54309;48.150;11.540;2022-10-16T14:21:22;4.45;;;4.25;;
7302;SDS011;54309;48.150;11.540;2022-10-16T14:23:51;3.97;;;3.80;;
7302;SDS011;54309;48.150;11.540;2022-10-16T14:26:20;4.00;;;3.90;;
7302;SDS011;54309;48.150;11.540;2022-10-16T14:28:48;4.10;;;4.00;;
7302;SDS011;54309;48.150;11.540;2022-10-16T14:31:29;4.65;;;4.35;;
7302;SDS011;54309;48.150;11.540;2022-10-16T14:33:56;4.68;;;4.30;;
7302;SDS011;54309;48.150;11.540;2022-10-16T14:36:24;4.18;;;3.97;;
7302;SDS011;54309;48.150;11.540;2022-10-16T14:38:56;4.20;;;4.00;;
7302;SDS011;54309;48.150;11.540;2022-10-16T14:41:25;4.35;;;4.05;;
7302;SDS011;54309;48.150;11.540;2022-10-16T14:43:53;4.38;;;4.20;;
7302;SDS011;54309;48.150;11.540;2022-10-16T14:46:21;4.28;;;4.07;;
7302;SDS011;54309;48.150;11.540;2022-10-16T14:48:51;4.30;;;4.10;;
7302;SDS011;54309;48.150;11.540;2022-10-16T14:51:19;4.00;;;3.90;;
7302;SDS011;54309;48.150;11.540;2022-10-16T14:53:49;4.60;;;4.40;;
7302;SDS011;54309;48.150;11.540;2022-10-16T14:56:18;4.28;;;4.00;;
7302;SDS011;54309;48.150;11.540;2022-10-16T14:58:46;8.32;;;6.57;;
7302;SDS011;54309;48.150;11.540;2022-10-16T15:01:13;4.30;;;4.10;;
7302;SDS011;54309;48.150;11.540;2022-10-16T15:03:40;3.90;;;3.70;;
7302;SDS011;54309;48.150;11.540;2022-10-16T15:06:09;4.30;;;4.00;;
7302;SDS011;54309;48.150;11.540;2022-10-16T15:08:37;4.20;;;3.90;;